| time (UTC) | temp C | wind direction | speed KPH | gust KPH | rain 1hr cm | rain 24hr cm | rain mn cm | humidity % | barometer mb |
| 20260906083047 | 16 | 217 | 0.0 | 0.0 | 0.00 | 0.03 | 0.00 | 67 | 1012.3 |
| 20260906081546 | 16 | 217 | 0.0 | 0.0 | 0.00 | 0.03 | 0.00 | 67 | 1012.1 |
| 20260906080053 | 16 | 217 | 0.0 | 0.0 | 0.00 | 0.03 | 0.00 | 67 | 1012.2 |
| 20260906074549 | 16 | 217 | 0.0 | 0.0 | 0.00 | 0.03 | 0.00 | 66 | 1012.4 |
| 20260906073043 | 16 | 217 | 0.0 | 0.0 | 0.00 | 0.03 | 0.00 | 66 | 1012.5 |
| 20260906071542 | 17 | 217 | 0.0 | 0.0 | 0.00 | 0.03 | 0.00 | 65 | 1012.3 |
| 20260906070041 | 17 | 217 | 0.0 | 0.0 | 0.00 | 0.03 | 0.00 | 65 | 1012.2 |
| 20260906064538 | 17 | 217 | 0.0 | 0.0 | 0.00 | 0.03 | 0.00 | 65 | 1012.7 |
| 20260906063043 | 17 | 217 | 0.0 | 0.0 | 0.00 | 0.03 | 0.00 | 64 | 1013.0 |
| 20260906061535 | 17 | 217 | 0.0 | 0.0 | 0.00 | 0.03 | 0.00 | 63 | 1013.1 |
| 20260906060035 | 17 | 217 | 0.0 | 0.0 | 0.00 | 0.03 | 0.00 | 63 | 1013.4 |
| 20260906054549 | 17 | 217 | 0.0 | 0.0 | 0.00 | 0.03 | 0.00 | 63 | 1013.5 |
| 20260906053030 | 17 | 217 | 0.0 | 0.0 | 0.00 | 0.03 | 0.00 | 62 | 1013.3 |
| 20260906051534 | 17 | 217 | 0.0 | 0.0 | 0.00 | 0.03 | 0.00 | 62 | 1013.4 |
| 20260906050031 | 18 | 217 | 0.0 | 0.0 | 0.00 | 0.03 | 0.00 | 63 | 1013.5 |
| 20260906044525 | 18 | 217 | 0.0 | 0.0 | 0.00 | 0.03 | 0.00 | 63 | 1013.7 |
| 20260906043024 | 18 | 217 | 0.0 | 0.0 | 0.00 | 0.03 | 0.00 | 62 | 1013.8 |
| 20260906041524 | 18 | 217 | 0.0 | 0.0 | 0.00 | 0.03 | 0.00 | 62 | 1013.7 |
| 20260906040020 | 18 | 217 | 0.0 | 0.0 | 0.00 | 0.03 | 0.03 | 63 | 1013.7 |
| 20260906034522 | 18 | 217 | 0.0 | 0.0 | 0.00 | 0.03 | 0.03 | 63 | 1013.7 |
| 20260906033019 | 18 | 217 | 0.0 | 0.0 | 0.00 | 0.03 | 0.03 | 63 | 1013.5 |
| 20260906031552 | 18 | 217 | 0.0 | 0.0 | 0.00 | 0.03 | 0.03 | 64 | 1013.5 |
| 20260906030018 | 18 | 217 | 0.0 | 0.0 | 0.00 | 0.03 | 0.03 | 64 | 1013.8 |
| 20260906024535 | 18 | 217 | 0.0 | 0.0 | 0.00 | 0.03 | 0.03 | 65 | 1013.6 |
| 20260906023020 | 19 | 217 | 0.0 | 0.0 | 0.00 | 0.03 | 0.03 | 66 | 1013.5 |
| 20260906021516 | 19 | 217 | 0.0 | 0.0 | 0.00 | 0.03 | 0.03 | 67 | 1013.2 |
| 20260906020015 | 19 | 217 | 0.0 | 0.0 | 0.00 | 0.03 | 0.03 | 67 | 1013.3 |
| 20260906014519 | 20 | 217 | 0.0 | 0.0 | 0.00 | 0.03 | 0.03 | 66 | 1013.2 |
| 20260906013014 | 20 | 217 | 0.0 | 0.0 | 0.00 | 0.03 | 0.03 | 66 | 1013.0 |
| 20260906011514 | 20 | 217 | 0.0 | 0.0 | 0.00 | 0.03 | 0.03 | 65 | 1012.8 |
| 20260906010033 | 20 | 217 | 0.0 | 3.2 | 0.00 | 0.03 | 0.03 | 65 | 1012.7 |
| 20260906004512 | 20 | 217 | 0.0 | 0.0 | 0.00 | 0.03 | 0.03 | 64 | 1012.5 |
| 20260906003012 | 21 | 217 | 0.0 | 0.0 | 0.00 | 0.03 | 0.03 | 63 | 1012.2 |
| 20260906001511 | 21 | 217 | 0.0 | 0.0 | 0.00 | 0.03 | 0.03 | 61 | 1012.1 |
| 20260906000018 | 22 | 217 | 0.0 | 0.0 | 0.00 | 0.03 | 0.03 | 59 | 1012.0 |
| 20260905234510 | 23 | 217 | 0.0 | 0.0 | 0.00 | 0.03 | 0.03 | 56 | 1012.0 |
| 20260905233010 | 23 | 217 | 0.0 | 0.0 | 0.00 | 0.03 | 0.03 | 54 | 1012.1 |
| 20260905231510 | 25 | 217 | 0.0 | 0.0 | 0.00 | 0.03 | 0.03 | 53 | 1012.0 |
| 20260905230022 | 25 | 217 | 0.0 | 0.0 | 0.00 | 0.03 | 0.03 | 50 | 1011.9 |
| 20260905224516 | 26 | 218 | 0.0 | 3.2 | 0.00 | 0.03 | 0.03 | 49 | 1012.2 |
| 20260905223014 | 27 | 218 | 0.0 | 3.2 | 0.00 | 0.03 | 0.03 | 46 | 1012.2 |
| 20260905221508 | 27 | 221 | 1.6 | 6.4 | 0.00 | 0.03 | 0.03 | 44 | 1012.1 |
| 20260905220008 | 28 | 232 | 3.2 | 11.3 | 0.00 | 0.03 | 0.03 | 42 | 1012.0 |
| 20260905214507 | 28 | 291 | 1.6 | 8.0 | 0.00 | 0.03 | 0.03 | 42 | 1012.0 |
| 20260905213006 | 28 | 321 | 4.8 | 11.3 | 0.00 | 0.03 | 0.03 | 42 | 1011.8 |
| 20260905211515 | 28 | 261 | 4.8 | 11.3 | 0.00 | 0.03 | 0.03 | 39 | 1012.1 |
| 20260905210010 | 28 | 242 | 3.2 | 9.7 | 0.00 | 0.03 | 0.03 | 40 | 1012.0 |
| 20260905204505 | 28 | 215 | 3.2 | 12.9 | 0.00 | 0.03 | 0.03 | 42 | 1011.9 |
| 20260905203004 | 28 | 248 | 3.2 | 11.3 | 0.00 | 0.03 | 0.03 | 45 | 1012.0 |
| 20260905201503 | 27 | 316 | 3.2 | 9.7 | 0.00 | 0.03 | 0.03 | 47 | 1012.0 |
| 20260905200002 | 26 | 221 | 3.2 | 6.4 | 0.00 | 0.03 | 0.03 | 47 | 1012.2 |
| 20260905194501 | 25 | 259 | 1.6 | 4.8 | 0.00 | 0.03 | 0.03 | 53 | 1012.1 |
| 20260905193101 | 23 | 264 | 1.6 | 4.8 | 0.00 | 0.03 | 0.03 | 57 | 1012.0 |
| 20260905191604 | 22 | 240 | 1.6 | 8.0 | 0.00 | 0.03 | 0.03 | 58 | 1011.8 |
| 20260905191502 | 22 | 235 | 3.2 | 8.0 | 0.00 | 0.03 | 0.03 | 57 | 1011.9 |
| 20260905190100 | 22 | 243 | 1.6 | 8.0 | 0.00 | 0.03 | 0.03 | 60 | 1011.8 |
| 20260905184559 | 22 | 239 | 1.6 | 6.4 | 0.03 | 0.03 | 0.03 | 62 | 1011.9 |
| 20260905183057 | 21 | 260 | 3.2 | 9.7 | 0.03 | 0.03 | 0.03 | 63 | 1012.3 |
| 20260905181554 | 20 | 252 | 3.2 | 11.3 | 0.03 | 0.03 | 0.03 | 64 | 1012.8 |
| 20260905180101 | 21 | 254 | 3.2 | 11.3 | 0.03 | 0.03 | 0.03 | 63 | 1012.9 |
| 20260905174554 | 22 | 239 | 0.0 | 3.2 | 0.00 | 0.00 | 0.00 | 60 | 1013.2 |
| 20260905173100 | 22 | 311 | 1.6 | 6.4 | 0.00 | 0.00 | 0.00 | 55 | 1014.3 |
| 20260905171549 | 23 | 256 | 1.6 | 8.0 | 0.00 | 0.00 | 0.00 | 53 | 1014.6 |
| 20260905170049 | 25 | 250 | 0.0 | 6.4 | 0.00 | 0.00 | 0.00 | 47 | 1014.9 |
| 20260905164547 | 26 | 319 | 4.8 | 12.9 | 0.00 | 0.00 | 0.00 | 49 | 1015.1 |
| 20260905163047 | 27 | 230 | 1.6 | 16.1 | 0.00 | 0.00 | 0.00 | 53 | 1014.7 |
| 20260905161546 | 28 | 312 | 1.6 | 14.5 | 0.00 | 0.00 | 0.00 | 49 | 1014.3 |
| 20260905160045 | 28 | 296 | 1.6 | 14.5 | 0.00 | 0.00 | 0.00 | 52 | 1014.2 |
| 20260905154540 | 27 | 227 | 8.0 | 17.7 | 0.00 | 0.00 | 0.00 | 52 | 1014.5 |
| 20260905153040 | 27 | 237 | 1.6 | 16.1 | 0.00 | 0.00 | 0.00 | 54 | 1014.5 |
| 20260905151547 | 27 | 237 | 4.8 | 17.7 | 0.00 | 0.00 | 0.00 | 51 | 1014.2 |
| 20260905150037 | 27 | 235 | 4.8 | 12.9 | 0.00 | 0.00 | 0.00 | 51 | 1014.0 |
| 20260905144535 | 27 | 186 | 3.2 | 11.3 | 0.00 | 0.00 | 0.00 | 53 | 1014.1 |
| 20260905143034 | 27 | 284 | 3.2 | 6.4 | 0.00 | 0.00 | 0.00 | 54 | 1014.2 |
| 20260905141530 | 26 | 256 | 3.2 | 12.9 | 0.00 | 0.00 | 0.00 | 57 | 1014.2 |
| 20260905140023 | 25 | 229 | 1.6 | 6.4 | 0.00 | 0.00 | 0.00 | 59 | 1014.0 |
| 20260905134518 | 23 | 255 | 1.6 | 9.7 | 0.00 | 0.00 | 0.00 | 65 | 1014.3 |
| 20260905133014 | 22 | 239 | 1.6 | 6.4 | 0.00 | 0.00 | 0.00 | 69 | 1014.4 |
| 20260905131515 | 21 | 221 | 1.6 | 4.8 | 0.00 | 0.00 | 0.00 | 70 | 1014.6 |
| 20260905130007 | 20 | 273 | 0.0 | 1.6 | 0.00 | 0.00 | 0.00 | 70 | 1014.7 |
| 20260905124509 | 20 | 273 | 0.0 | 0.0 | 0.00 | 0.00 | 0.00 | 70 | 1014.7 |
| 20260905123101 | 18 | 273 | 0.0 | 0.0 | 0.00 | 0.00 | 0.00 | 70 | 1014.7 |
| 20260905121559 | 18 | 273 | 0.0 | 0.0 | 0.00 | 0.00 | 0.00 | 70 | 1014.6 |
| 20260905120059 | 17 | 273 | 0.0 | 0.0 | 0.00 | 0.00 | 0.00 | 70 | 1014.6 |
| 20260905114558 | 17 | 273 | 0.0 | 0.0 | 0.00 | 0.00 | 0.00 | 70 | 1014.6 |
| 20260905113057 | 17 | 275 | 0.0 | 0.0 | 0.00 | 0.00 | 0.00 | 70 | 1014.4 |
| 20260905111556 | 16 | 275 | 0.0 | 0.0 | 0.00 | 0.00 | 0.00 | 69 | 1014.3 |
| 20260905110108 | 16 | 275 | 0.0 | 0.0 | 0.00 | 0.00 | 0.00 | 69 | 1014.2 |
| 20260905104555 | 16 | 275 | 0.0 | 0.0 | 0.00 | 0.00 | 0.00 | 69 | 1014.1 |
| 20260905103054 | 16 | 275 | 0.0 | 0.0 | 0.00 | 0.00 | 0.00 | 69 | 1014.1 |
| 20260905101603 | 17 | 275 | 0.0 | 0.0 | 0.00 | 0.00 | 0.00 | 68 | 1013.9 |
| 20260905100051 | 17 | 275 | 0.0 | 0.0 | 0.00 | 0.00 | 0.00 | 68 | 1013.8 |
| 20260905094550 | 17 | 275 | 0.0 | 0.0 | 0.00 | 0.00 | 0.00 | 68 | 1013.6 |
| 20260905093049 | 17 | 275 | 0.0 | 0.0 | 0.00 | 0.00 | 0.00 | 68 | 1013.5 |
| 20260905091600 | 17 | 275 | 0.0 | 0.0 | 0.00 | 0.00 | 0.00 | 68 | 1013.6 |
| 20260905090046 | 17 | 275 | 0.0 | 0.0 | 0.00 | 0.00 | 0.00 | 68 | 1013.7 |
| 20260905084544 | 17 | 275 | 0.0 | 0.0 | 0.00 | 0.00 | 0.00 | 67 | 1013.9 |